createdAt,value
2019-03-21T00:01:26.429Z,8.57
2019-03-21T00:04:07.153Z,8.50
2019-03-21T00:06:48.403Z,9.30
2019-03-21T00:09:29.940Z,8.63
2019-03-21T00:12:11.243Z,9.00
2019-03-21T00:14:51.844Z,8.83
2019-03-21T00:17:33.183Z,9.30
2019-03-21T00:20:03.130Z,9.63
2019-03-21T00:22:52.269Z,9.93
2019-03-21T00:25:40.945Z,8.70
2019-03-21T00:28:30.002Z,9.17
2019-03-21T00:31:18.783Z,9.10
2019-03-21T00:34:07.492Z,8.90
2019-03-21T00:36:48.923Z,9.40
2019-03-21T00:39:33.096Z,8.63
2019-03-21T00:42:12.798Z,8.60
2019-03-21T00:44:54.245Z,9.53
2019-03-21T00:47:35.623Z,10.20
2019-03-21T00:50:16.614Z,9.70
2019-03-21T00:52:57.129Z,8.80
2019-03-21T00:55:27.393Z,7.90
2019-03-21T00:58:16.120Z,9.40
2019-03-21T01:01:05.078Z,10.60
2019-03-21T01:03:53.886Z,10.73
2019-03-21T01:06:42.539Z,9.70
2019-03-21T01:12:10.213Z,9.80
2019-03-21T01:14:59.157Z,9.83
2019-03-21T01:17:47.957Z,10.33
2019-03-21T01:20:36.745Z,10.03
2019-03-21T01:23:25.511Z,11.23
2019-03-21T01:26:14.224Z,9.13
2019-03-21T01:29:02.973Z,10.17
2019-03-21T01:31:32.887Z,10.30
2019-03-21T01:34:21.653Z,11.30
2019-03-21T01:37:02.671Z,10.00
2019-03-21T01:39:43.963Z,10.60
2019-03-21T01:42:25.617Z,9.30
2019-03-21T01:45:07.014Z,11.37
2019-03-21T01:47:47.888Z,10.90
2019-03-21T01:50:28.984Z,9.57
2019-03-21T01:53:09.778Z,9.37
2019-03-21T01:55:50.857Z,10.10
2019-03-21T01:58:31.912Z,10.93
2019-03-21T02:01:12.709Z,10.07
2019-03-21T02:03:54.001Z,9.73
2019-03-21T02:06:35.004Z,9.53
2019-03-21T02:09:16.215Z,9.73
2019-03-21T02:11:56.976Z,11.37
2019-03-21T02:14:37.937Z,11.00
2019-03-21T02:17:19.429Z,10.40
2019-03-21T02:20:00.917Z,9.53
2019-03-21T02:22:42.343Z,9.07
2019-03-21T02:25:23.195Z,9.23
2019-03-21T02:28:04.471Z,8.27
2019-03-21T02:30:35.817Z,10.00
2019-03-21T02:33:26.010Z,9.07
2019-03-21T02:36:06.686Z,9.83
2019-03-21T02:38:47.857Z,9.17
2019-03-21T02:41:29.158Z,9.87
2019-03-21T02:44:09.986Z,8.80
2019-03-21T02:46:50.878Z,9.70
2019-03-21T02:49:31.905Z,8.90
2019-03-21T02:52:13.218Z,9.37
2019-03-21T02:54:54.373Z,8.43
2019-03-21T02:57:35.305Z,8.60
2019-03-21T03:00:16.603Z,9.53
2019-03-21T03:02:57.947Z,8.30
2019-03-21T03:05:38.925Z,8.80
2019-03-21T03:08:20.086Z,7.83
2019-03-21T03:11:01.343Z,7.70
2019-03-21T03:13:42.840Z,7.27
2019-03-21T03:16:24.167Z,6.50
2019-03-21T03:19:05.415Z,6.90
2019-03-21T03:21:46.177Z,6.90
2019-03-21T03:24:27.617Z,7.60
2019-03-21T03:27:09.018Z,7.90
2019-03-21T03:29:50.499Z,6.30
2019-03-21T03:32:31.736Z,6.13
2019-03-21T03:35:12.794Z,7.43
2019-03-21T03:37:53.931Z,6.70
2019-03-21T03:40:35.717Z,6.67
2019-03-21T03:43:16.423Z,6.50
2019-03-21T03:45:57.694Z,5.90
2019-03-21T03:48:39.393Z,7.60
2019-03-21T03:51:20.312Z,5.87
2019-03-21T03:54:01.392Z,6.20
2019-03-21T03:56:42.725Z,5.60
2019-03-21T03:59:23.608Z,5.60
2019-03-21T04:01:53.529Z,6.37
2019-03-21T04:04:42.496Z,6.17
2019-03-21T04:07:31.221Z,6.27
2019-03-21T04:10:21.446Z,5.20
2019-03-21T04:13:10.226Z,6.03
2019-03-21T04:15:58.972Z,4.70
2019-03-21T04:18:47.629Z,5.33
2019-03-21T04:21:36.370Z,5.90
2019-03-21T04:24:25.153Z,6.70
2019-03-21T04:27:13.834Z,6.00
2019-03-21T04:30:02.784Z,5.13
2019-03-21T04:32:43.516Z,5.00
2019-03-21T04:35:24.633Z,5.27
2019-03-21T04:41:08.954Z,4.57
2019-03-21T04:43:57.849Z,5.23
2019-03-21T04:46:46.572Z,4.27
2019-03-21T04:49:35.221Z,4.23
2019-03-21T04:52:24.013Z,4.50
2019-03-21T04:55:13.061Z,5.27
2019-03-21T04:58:02.114Z,5.70
2019-03-21T05:00:51.061Z,4.53
2019-03-21T05:03:39.843Z,4.67
2019-03-21T05:06:28.579Z,6.47
2019-03-21T05:09:18.438Z,4.50
2019-03-21T05:12:07.088Z,4.20
2019-03-21T05:14:55.854Z,4.00
2019-03-21T05:17:45.068Z,4.37
2019-03-21T05:20:33.711Z,4.80
2019-03-21T05:23:22.371Z,4.83
2019-03-21T05:26:10.977Z,5.60
2019-03-21T05:29:20.399Z,4.00
2019-03-21T05:31:50.243Z,3.47
2019-03-21T05:34:39.167Z,4.90
2019-03-21T05:37:27.857Z,5.37
2019-03-21T05:40:15.673Z,5.10
2019-03-21T05:43:06.356Z,5.73
2019-03-21T05:45:55.231Z,4.47
2019-03-21T05:48:43.971Z,4.20
2019-03-21T05:51:32.540Z,5.77
2019-03-21T05:54:43.091Z,5.20
2019-03-21T05:57:32.096Z,4.90
2019-03-21T06:00:22.681Z,4.80
2019-03-21T06:03:30.290Z,4.83
2019-03-21T06:06:24.167Z,5.27
2019-03-21T06:09:13.759Z,5.70
2019-03-21T06:12:02.539Z,4.70
2019-03-21T06:14:53.315Z,5.47
2019-03-21T06:17:42.004Z,4.90
2019-03-21T06:20:49.444Z,4.50
2019-03-21T06:23:43.390Z,4.53
2019-03-21T06:26:50.928Z,5.13
2019-03-21T06:29:39.668Z,5.70
2019-03-21T06:32:20.930Z,4.70
2019-03-21T06:35:03.336Z,5.67
2019-03-21T06:37:44.515Z,4.83
2019-03-21T06:40:25.138Z,4.67
2019-03-21T06:43:09.348Z,5.20
2019-03-21T06:45:50.847Z,4.90
2019-03-21T06:48:31.727Z,6.10
2019-03-21T06:51:12.952Z,5.77
2019-03-21T06:53:55.155Z,5.07
2019-03-21T06:56:36.404Z,5.20
2019-03-21T06:59:17.651Z,6.17
2019-03-21T07:01:47.642Z,5.20
2019-03-21T07:04:36.316Z,5.83
2019-03-21T07:07:25.078Z,5.47
2019-03-21T07:10:13.959Z,6.80
2019-03-21T07:13:02.781Z,6.17
2019-03-21T07:15:51.531Z,7.37
2019-03-21T07:18:40.524Z,6.37
2019-03-21T07:21:29.257Z,6.20
2019-03-21T07:24:17.948Z,6.13
2019-03-21T07:27:06.713Z,6.87
2019-03-21T07:29:55.446Z,5.20
2019-03-21T07:32:36.634Z,6.90
2019-03-21T07:35:17.674Z,6.40
2019-03-21T07:37:58.493Z,7.40
2019-03-21T07:40:40.237Z,5.90
2019-03-21T07:43:22.410Z,5.80
2019-03-21T07:46:03.185Z,6.30
2019-03-21T07:48:44.418Z,6.37
2019-03-21T07:51:25.781Z,5.70
2019-03-21T07:54:06.967Z,6.03
2019-03-21T07:56:47.836Z,6.37
2019-03-21T07:59:29.026Z,6.57
2019-03-21T08:02:09.611Z,5.90
2019-03-21T08:04:50.865Z,6.70
2019-03-21T08:07:32.275Z,6.83
2019-03-21T08:10:13.319Z,6.80
2019-03-21T08:12:54.160Z,7.77
2019-03-21T08:15:37.736Z,8.00
2019-03-21T08:18:18.421Z,7.10
2019-03-21T08:21:00.112Z,8.23
2019-03-21T08:23:41.010Z,5.80
2019-03-21T08:26:21.867Z,7.00
2019-03-21T08:29:03.182Z,5.93
2019-03-21T08:31:44.509Z,7.33
2019-03-21T08:34:14.395Z,6.60
2019-03-21T08:37:03.099Z,6.97
2019-03-21T08:39:51.822Z,8.40
2019-03-21T08:42:40.524Z,5.90
2019-03-21T08:45:29.237Z,6.40
2019-03-21T08:51:35.039Z,6.30
2019-03-21T08:54:24.027Z,5.87
2019-03-21T08:57:12.732Z,6.40
2019-03-21T09:00:01.389Z,5.90
2019-03-21T09:02:50.108Z,6.23
2019-03-21T09:05:38.765Z,6.90
2019-03-21T09:08:27.439Z,4.80
2019-03-21T09:11:16.136Z,4.57
2019-03-21T09:14:04.795Z,6.23
2019-03-21T09:16:54.012Z,6.17
2019-03-21T09:19:42.969Z,5.23
2019-03-21T09:22:31.654Z,6.17
2019-03-21T09:25:20.384Z,6.30
2019-03-21T09:28:09.170Z,5.53
2019-03-21T09:30:50.740Z,5.27
2019-03-21T09:33:32.082Z,5.80
2019-03-21T09:36:13.179Z,5.93
2019-03-21T09:38:54.305Z,6.87
2019-03-21T09:41:35.651Z,5.97
2019-03-21T09:44:17.008Z,5.43
2019-03-21T09:46:58.339Z,5.43
2019-03-21T09:49:40.020Z,6.30
2019-03-21T09:52:21.320Z,6.37
2019-03-21T09:55:02.544Z,7.13
2019-03-21T09:57:43.633Z,5.73
2019-03-21T10:00:25.106Z,6.43
2019-03-21T10:03:06.516Z,6.90
2019-03-21T10:05:47.822Z,6.73
2019-03-21T10:08:28.785Z,6.50
2019-03-21T10:11:09.858Z,6.30
2019-03-21T10:13:51.094Z,6.40
2019-03-21T10:16:31.796Z,6.93
2019-03-21T10:19:13.242Z,5.57
2019-03-21T10:21:56.201Z,6.40
2019-03-21T10:24:37.070Z,7.10
2019-03-21T10:27:18.651Z,5.73
2019-03-21T10:29:48.642Z,6.30
2019-03-21T10:32:29.707Z,7.87
2019-03-21T10:35:10.431Z,5.63
2019-03-21T10:37:50.466Z,6.90
2019-03-21T10:40:39.165Z,7.47
2019-03-21T10:43:27.870Z,5.77
2019-03-21T10:46:16.629Z,6.07
2019-03-21T10:49:05.486Z,6.77
2019-03-21T10:51:55.363Z,7.33
2019-03-21T10:54:44.746Z,5.93
2019-03-21T10:57:33.481Z,7.47
2019-03-21T11:00:22.247Z,9.07
2019-03-21T11:03:10.918Z,5.80
2019-03-21T11:05:59.589Z,5.60
2019-03-21T11:08:48.608Z,7.43
2019-03-21T11:11:37.444Z,7.10
2019-03-21T11:14:26.160Z,7.63
2019-03-21T11:17:14.930Z,7.30
2019-03-21T11:20:03.616Z,6.07
2019-03-21T11:22:52.376Z,6.93
2019-03-21T11:25:59.937Z,6.63
2019-03-21T11:28:48.787Z,6.50
2019-03-21T11:31:30.040Z,8.43
2019-03-21T11:34:10.923Z,9.47
2019-03-21T11:36:51.626Z,8.37
2019-03-21T11:39:32.701Z,8.07
2019-03-21T11:42:13.636Z,8.77
2019-03-21T11:44:54.590Z,9.73
2019-03-21T11:47:41.811Z,9.07
2019-03-21T11:50:18.921Z,10.13
2019-03-21T11:53:00.587Z,10.90
2019-03-21T11:55:41.675Z,10.10
2019-03-21T11:58:22.861Z,10.43
2019-03-21T12:01:03.894Z,9.70
2019-03-21T12:03:45.433Z,10.03
2019-03-21T12:06:26.615Z,10.17
2019-03-21T12:09:07.956Z,10.07
2019-03-21T12:11:48.989Z,9.40
2019-03-21T12:14:30.548Z,10.40
2019-03-21T12:17:12.984Z,8.63
2019-03-21T12:19:43.100Z,8.00
2019-03-21T12:22:31.803Z,8.73
2019-03-21T12:25:20.530Z,9.90
2019-03-21T12:28:09.285Z,11.40
2019-03-21T12:30:49.881Z,10.77
2019-03-21T12:33:31.133Z,9.93
2019-03-21T12:36:11.028Z,10.87
2019-03-21T12:38:59.659Z,8.57
2019-03-21T12:41:48.331Z,8.80
2019-03-21T12:44:36.987Z,9.40
2019-03-21T12:47:30.996Z,8.87
2019-03-21T12:50:16.249Z,10.33
2019-03-21T12:53:05.102Z,11.33
2019-03-21T12:55:53.843Z,9.33
2019-03-21T12:58:42.496Z,11.07
2019-03-21T13:01:31.226Z,10.80
2019-03-21T13:04:19.911Z,8.90
2019-03-21T13:07:08.928Z,9.23
2019-03-21T13:09:57.706Z,8.97
2019-03-21T13:12:46.440Z,7.73
2019-03-21T13:15:35.231Z,9.50
2019-03-21T13:18:23.904Z,9.07
2019-03-21T13:21:12.594Z,11.30
2019-03-21T13:24:01.302Z,9.93
2019-03-21T13:26:49.978Z,7.77
2019-03-21T13:29:38.754Z,9.10
2019-03-21T13:32:08.668Z,10.47
2019-03-21T13:34:59.742Z,10.17
2019-03-21T13:37:48.128Z,11.50
2019-03-21T13:40:36.832Z,11.70
2019-03-21T13:43:25.521Z,10.73
2019-03-21T13:46:14.342Z,9.90
2019-03-21T13:49:03.105Z,11.27
2019-03-21T13:51:51.812Z,10.00
2019-03-21T13:54:40.855Z,8.90
2019-03-21T13:57:29.710Z,10.07
2019-03-21T14:00:37.430Z,9.77
2019-03-21T14:03:26.341Z,10.27
2019-03-21T14:06:15.026Z,11.60
2019-03-21T14:09:24.109Z,10.60
2019-03-21T14:12:12.791Z,9.00
2019-03-21T14:15:01.706Z,10.47
2019-03-21T14:17:50.438Z,9.97
2019-03-21T14:20:39.133Z,9.70
2019-03-21T14:23:27.903Z,9.80
2019-03-21T14:26:16.673Z,11.00
2019-03-21T14:29:12.500Z,10.43
2019-03-21T14:31:48.059Z,11.07
2019-03-21T14:34:28.927Z,10.17
2019-03-21T14:37:10.625Z,9.20
2019-03-21T14:39:51.287Z,10.10
2019-03-21T14:42:32.282Z,10.20
2019-03-21T14:45:12.988Z,9.97
2019-03-21T14:47:54.175Z,8.67
2019-03-21T14:50:35.682Z,11.20
2019-03-21T14:53:28.024Z,10.13
2019-03-21T14:56:00.427Z,9.67
2019-03-21T14:58:41.495Z,9.47
2019-03-21T15:01:23.028Z,8.80
2019-03-21T15:04:04.054Z,9.60
2019-03-21T15:06:44.650Z,8.07
2019-03-21T15:09:25.521Z,11.50
2019-03-21T15:12:06.419Z,9.80
2019-03-21T15:14:47.839Z,12.23
2019-03-21T15:17:29.272Z,10.27
2019-03-21T15:20:10.766Z,11.30
2019-03-21T15:22:51.878Z,10.13
2019-03-21T15:25:33.005Z,8.57
2019-03-21T15:28:15.278Z,8.60
2019-03-21T15:30:56.314Z,9.40
2019-03-21T15:33:26.206Z,9.40
2019-03-21T15:36:14.859Z,8.97
2019-03-21T15:42:12.874Z,9.50
2019-03-21T15:44:43.273Z,10.10
2019-03-21T15:47:32.031Z,8.47
2019-03-21T15:50:39.485Z,9.90
2019-03-21T15:53:28.311Z,7.37
2019-03-21T15:56:16.971Z,8.53
2019-03-21T15:59:05.688Z,8.30
2019-03-21T16:01:54.433Z,7.83
2019-03-21T16:04:43.351Z,8.57
2019-03-21T16:07:53.098Z,7.70
2019-03-21T16:10:44.491Z,10.03
2019-03-21T16:16:42.963Z,8.20
2019-03-21T16:19:32.060Z,7.97
2019-03-21T16:22:20.726Z,9.37
2019-03-21T16:25:09.545Z,8.70
2019-03-21T16:27:58.321Z,8.00
2019-03-21T16:30:47.160Z,8.90
2019-03-21T16:36:29.963Z,8.13
2019-03-21T16:39:00.093Z,9.47
2019-03-21T16:41:51.379Z,8.53
2019-03-21T16:44:40.431Z,8.63
2019-03-21T16:47:29.215Z,9.10
2019-03-21T16:50:18.097Z,8.33
2019-03-21T16:53:06.802Z,7.17
2019-03-21T16:55:55.772Z,7.40
2019-03-21T16:58:44.511Z,6.97
2019-03-21T17:01:33.291Z,7.60
2019-03-21T17:04:22.147Z,7.27
2019-03-21T17:07:10.855Z,9.07
2019-03-21T17:09:59.965Z,7.17
2019-03-21T17:12:48.701Z,8.33
2019-03-21T17:15:37.324Z,7.83
2019-03-21T17:21:40.230Z,8.10
2019-03-21T17:24:47.048Z,7.73
2019-03-21T17:30:31.636Z,9.10
2019-03-21T17:33:12.720Z,8.80
2019-03-21T17:35:53.817Z,9.50
2019-03-21T17:38:34.930Z,9.40
2019-03-21T17:41:15.825Z,9.40
2019-03-21T17:43:56.780Z,9.00
2019-03-21T17:46:38.046Z,8.63
2019-03-21T17:49:18.714Z,8.43
2019-03-21T17:51:59.795Z,9.10
2019-03-21T17:54:41.957Z,9.13
2019-03-21T17:57:34.076Z,7.70
2019-03-21T18:00:05.120Z,6.23
2019-03-21T18:02:51.741Z,7.47
2019-03-21T18:05:33.041Z,10.80
2019-03-21T18:08:18.068Z,13.97
2019-03-21T18:13:42.692Z,9.73
2019-03-21T18:16:23.472Z,7.40
2019-03-21T18:19:05.847Z,7.73
2019-03-21T18:21:50.196Z,7.40
2019-03-21T18:24:36.103Z,8.57
2019-03-21T18:30:08.677Z,14.47
2019-03-21T18:32:58.158Z,15.47
2019-03-21T18:35:46.918Z,16.40
2019-03-21T18:38:36.005Z,16.00
2019-03-21T18:41:24.738Z,14.20
2019-03-21T18:44:13.780Z,14.80
2019-03-21T18:47:03.410Z,13.70
2019-03-21T18:49:52.196Z,12.37
2019-03-21T18:52:41.559Z,13.47
2019-03-21T18:55:30.382Z,13.73
2019-03-21T18:58:19.161Z,13.60
2019-03-21T19:01:08.049Z,13.37
2019-03-21T19:04:30.163Z,11.33
2019-03-21T19:06:50.332Z,11.30
2019-03-21T19:09:39.138Z,10.73
2019-03-21T19:12:27.834Z,11.30
2019-03-21T19:15:17.197Z,10.50
2019-03-21T19:18:24.894Z,9.97
2019-03-21T19:21:13.622Z,9.13
2019-03-21T19:24:02.766Z,9.90
2019-03-21T19:26:51.419Z,11.47
2019-03-21T19:29:32.713Z,10.70
2019-03-21T19:32:14.023Z,10.07
2019-03-21T19:35:02.761Z,15.60
2019-03-21T19:37:51.500Z,12.60
2019-03-21T19:40:40.399Z,10.53
2019-03-21T19:43:29.156Z,10.90
2019-03-21T19:46:18.308Z,10.30
2019-03-21T19:49:19.688Z,9.53
2019-03-21T19:51:58.419Z,10.20
2019-03-21T19:54:47.253Z,9.20
2019-03-21T19:57:36.075Z,9.80
2019-03-21T20:00:24.875Z,10.43
2019-03-21T20:03:13.587Z,11.30
2019-03-21T20:06:02.276Z,10.13
2019-03-21T20:08:50.903Z,8.97
2019-03-21T20:11:39.860Z,8.67
2019-03-21T20:14:29.160Z,9.80
2019-03-21T20:17:18.076Z,10.73
2019-03-21T20:23:35.107Z,11.13
2019-03-21T20:26:23.796Z,11.43
2019-03-21T20:29:04.332Z,11.23
2019-03-21T20:31:45.610Z,11.57
2019-03-21T20:34:28.690Z,11.87
2019-03-21T20:37:09.872Z,9.83
2019-03-21T20:39:50.813Z,10.30
2019-03-21T20:42:31.665Z,11.03
2019-03-21T20:45:12.917Z,9.97
2019-03-21T20:47:57.133Z,13.80
2019-03-21T20:50:38.066Z,12.90
2019-03-21T20:53:19.842Z,13.10
2019-03-21T20:56:00.665Z,12.30
2019-03-21T20:58:41.513Z,13.03
2019-03-21T21:01:22.493Z,11.23
2019-03-21T21:04:03.709Z,10.90
2019-03-21T21:06:44.847Z,12.30
2019-03-21T21:09:25.656Z,11.90
2019-03-21T21:12:06.699Z,15.23
2019-03-21T21:14:47.853Z,13.83
2019-03-21T21:17:28.503Z,13.70
2019-03-21T21:20:13.392Z,14.80
2019-03-21T21:22:55.013Z,16.73
2019-03-21T21:28:19.204Z,14.47
2019-03-21T21:31:00.208Z,13.83
2019-03-21T21:33:40.935Z,13.43
2019-03-21T21:36:22.510Z,12.10
2019-03-21T21:39:04.316Z,11.90
2019-03-21T21:41:45.017Z,11.33
2019-03-21T21:44:14.996Z,11.47
2019-03-21T21:47:03.676Z,11.00
2019-03-21T21:49:52.405Z,11.97
2019-03-21T21:52:22.276Z,12.50
2019-03-21T21:55:30.544Z,14.13
2019-03-21T22:01:58.915Z,13.43
2019-03-21T22:05:26.336Z,13.83
2019-03-21T22:08:17.057Z,13.63
2019-03-21T22:20:25.981Z,13.00
2019-03-21T22:23:07.385Z,16.30
2019-03-21T22:25:48.707Z,16.17
2019-03-21T22:28:29.514Z,16.60
2019-03-21T22:31:10.919Z,15.33
2019-03-21T22:33:51.696Z,16.17
2019-03-21T22:36:33.198Z,18.23
2019-03-21T22:39:14.236Z,15.00
2019-03-21T22:41:55.622Z,15.33
2019-03-21T22:44:36.435Z,17.60
2019-03-21T22:47:17.757Z,16.50
2019-03-21T22:49:59.538Z,18.93
2019-03-21T22:52:40.413Z,17.50
2019-03-21T22:55:21.598Z,15.47
2019-03-21T22:58:02.760Z,19.47
2019-03-21T23:00:45.382Z,19.13
2019-03-21T23:03:26.188Z,16.07
2019-03-21T23:06:06.143Z,16.43
2019-03-21T23:08:54.926Z,17.97
2019-03-21T23:11:43.689Z,16.90
2019-03-21T23:14:32.389Z,14.90
2019-03-21T23:17:21.084Z,16.43
2019-03-21T23:20:10.075Z,15.83
2019-03-21T23:22:51.167Z,16.27
2019-03-21T23:25:31.841Z,15.90
2019-03-21T23:28:01.869Z,15.63
2019-03-21T23:30:50.585Z,16.47
2019-03-21T23:33:39.768Z,16.83
2019-03-21T23:36:28.548Z,14.87
2019-03-21T23:39:17.250Z,15.47
2019-03-21T23:42:05.953Z,13.53
2019-03-21T23:44:54.657Z,13.83
2019-03-21T23:47:43.477Z,14.23
2019-03-21T23:50:13.652Z,15.67
2019-03-21T23:53:02.372Z,15.73
2019-03-21T23:55:51.177Z,15.47
2019-03-21T23:58:39.850Z,13.77
